Terminal Aerodrome Forecast
Issued by NWS

Home | Current Version | Previous Version | Text Only | Print | Product List | Glossary On
Versions: 1 2 3 4 5 6 7 8 9 10 11 12 13 14
000
FTUS43 KICT 232321
TAFHUT
TAF
KHUT 232321Z 2400/2424 33015G22KT P6SM SCT060 BKN100
     FM240500 30014KT P6SM SCT040
     FM241500 30018G25KT P6SM SKC=

USA.gov is the U.S. government's official web portal to all federal, state and local government web resources and services.